createdAt,value
2023-03-23T00:00:00.337Z,1246.4990
2023-03-23T00:00:11.401Z,1244.1750
2023-03-23T00:00:22.540Z,1243.0170
2023-03-23T00:00:33.570Z,1243.0170
2023-03-23T00:00:44.634Z,1244.1750
2023-03-23T00:00:55.687Z,1240.7061
2023-03-23T00:01:06.739Z,1240.7061
2023-03-23T00:01:17.790Z,1250.0000
2023-03-23T00:01:29.208Z,1236.1110
2023-03-23T00:01:40.737Z,1240.7061
2023-03-23T00:01:51.928Z,1247.6639
2023-03-23T00:02:03.209Z,1236.1110
2023-03-23T00:02:14.496Z,1241.8600
2023-03-23T00:02:25.595Z,1243.0170
2023-03-23T00:02:36.637Z,1234.9680
2023-03-23T00:02:47.756Z,1237.2570
2023-03-23T00:02:58.808Z,1237.2570
2023-03-23T00:03:09.868Z,1236.1110
2023-03-23T00:03:20.927Z,1237.2570
2023-03-23T00:03:31.979Z,1241.8600
2023-03-23T00:03:43.016Z,1239.5540
2023-03-23T00:03:54.086Z,1244.1750
2023-03-23T00:04:05.146Z,1240.7061
2023-03-23T00:04:16.208Z,1241.8600
2023-03-23T00:04:33.160Z,1231.5500
2023-03-23T00:04:44.358Z,1228.1510
2023-03-23T00:04:55.418Z,1232.6870
2023-03-23T00:05:06.486Z,1237.2570
2023-03-23T00:05:17.547Z,1238.4041
2023-03-23T00:05:28.901Z,1227.0220
2023-03-23T00:05:40.184Z,1236.1110
2023-03-23T00:05:51.634Z,1233.8260
2023-03-23T00:06:02.679Z,1234.9680
2023-03-23T00:06:13.727Z,1234.9680
2023-03-23T00:06:24.765Z,1236.1110
2023-03-23T00:06:35.820Z,1232.6870
2023-03-23T00:06:47.286Z,1234.9680
2023-03-23T00:06:58.317Z,1231.5500
2023-03-23T00:07:09.362Z,1233.8260
2023-03-23T00:07:20.437Z,1233.8260
2023-03-23T00:07:31.666Z,1232.6870
2023-03-23T00:07:42.716Z,1231.5500
2023-03-23T00:07:54.216Z,1243.0170
2023-03-23T00:08:05.416Z,1236.1110
2023-03-23T00:08:16.505Z,1233.8260
2023-03-23T00:08:27.788Z,1238.4041
2023-03-23T00:08:38.838Z,1236.1110
2023-03-23T00:08:49.910Z,1232.6870
2023-03-23T00:09:06.846Z,1229.2820
2023-03-23T00:09:17.906Z,1227.0220
2023-03-23T00:09:29.006Z,1223.6479
2023-03-23T00:09:40.077Z,1223.6479
2023-03-23T00:09:51.147Z,1237.2570
2023-03-23T00:10:02.193Z,1238.4041
2023-03-23T00:10:13.219Z,1238.4041
2023-03-23T00:10:24.314Z,1231.5500
2023-03-23T00:10:35.375Z,1238.4041
2023-03-23T00:10:46.656Z,1237.2570
2023-03-23T00:10:57.730Z,1236.1110
2023-03-23T00:11:08.789Z,1227.0220
2023-03-23T00:11:19.844Z,1234.9680
2023-03-23T00:11:30.988Z,1238.4041
2023-03-23T00:11:42.156Z,1233.8260
2023-03-23T00:11:53.362Z,1231.5500
2023-03-23T00:12:04.402Z,1239.5540
2023-03-23T00:12:15.926Z,1240.7061
2023-03-23T00:12:26.989Z,1233.8260
2023-03-23T00:12:42.843Z,1227.0220
2023-03-23T00:12:53.906Z,1221.4091
2023-03-23T00:13:05.024Z,1237.2570
2023-03-23T00:13:16.075Z,1227.0220
2023-03-23T00:13:27.137Z,1236.1110
2023-03-23T00:13:38.189Z,1233.8260
2023-03-23T00:13:50.039Z,1231.5500
2023-03-23T00:14:01.086Z,1231.5500
2023-03-23T00:14:12.150Z,1236.1110
2023-03-23T00:14:23.218Z,1229.2820
2023-03-23T00:14:34.252Z,1243.0170
2023-03-23T00:14:45.316Z,1229.2820
2023-03-23T00:15:02.255Z,1230.4150
2023-03-23T00:15:13.310Z,1229.2820
2023-03-23T00:15:24.361Z,1229.2820
2023-03-23T00:15:35.423Z,1233.8260
2023-03-23T00:15:46.481Z,1229.2820
2023-03-23T00:15:57.545Z,1227.0220
2023-03-23T00:16:14.516Z,1224.7710
2023-03-23T00:16:25.528Z,1220.2930
2023-03-23T00:16:36.737Z,1230.4150
2023-03-23T00:16:47.787Z,1229.2820
2023-03-23T00:16:58.839Z,1219.1780
2023-03-23T00:17:09.926Z,1234.9680
2023-03-23T00:17:20.973Z,1228.1510
2023-03-23T00:17:32.423Z,1227.0220
2023-03-23T00:17:43.492Z,1229.2820
2023-03-23T00:17:54.558Z,1229.2820
2023-03-23T00:18:05.665Z,1228.1510
2023-03-23T00:18:16.725Z,1231.5500
2023-03-23T00:18:28.741Z,1229.2820
2023-03-23T00:18:39.804Z,1228.1510
2023-03-23T00:18:50.878Z,1231.5500
2023-03-23T00:19:01.945Z,1230.4150
2023-03-23T00:19:13.016Z,1234.9680
2023-03-23T00:19:25.611Z,1240.7061
2023-03-23T00:19:37.777Z,1232.6870
2023-03-23T00:19:48.817Z,1223.6479
2023-03-23T00:20:00.279Z,1227.0220
2023-03-23T00:20:11.577Z,1229.2820
2023-03-23T00:20:22.635Z,1221.4091
2023-03-23T00:20:33.921Z,1236.1110
2023-03-23T00:20:44.997Z,1234.9680
2023-03-23T00:20:56.079Z,1230.4150
2023-03-23T00:21:07.132Z,1233.8260
2023-03-23T00:21:18.207Z,1236.1110
2023-03-23T00:21:29.250Z,1236.1110
2023-03-23T00:21:40.278Z,1238.4041
2023-03-23T00:21:52.264Z,1227.0220
2023-03-23T00:22:03.311Z,1240.7061
2023-03-23T00:22:14.344Z,1234.9680
2023-03-23T00:22:25.576Z,1229.2820
2023-03-23T00:22:36.729Z,1237.2570
2023-03-23T00:22:47.786Z,1229.2820
2023-03-23T00:22:59.167Z,1232.6870
2023-03-23T00:23:10.264Z,1232.6870
2023-03-23T00:23:21.320Z,1224.7710
2023-03-23T00:23:32.447Z,1233.8260
2023-03-23T00:23:43.507Z,1237.2570
2023-03-23T00:23:54.556Z,1234.9680
2023-03-23T00:24:06.030Z,1230.4150
2023-03-23T00:24:17.079Z,1231.5500
2023-03-23T00:24:28.130Z,1233.8260
2023-03-23T00:24:39.194Z,1234.9680
2023-03-23T00:24:50.261Z,1232.6870
2023-03-23T00:25:01.347Z,1224.7710
2023-03-23T00:25:12.974Z,1232.6870
2023-03-23T00:25:24.259Z,1236.1110
2023-03-23T00:25:35.614Z,1243.0170
2023-03-23T00:25:46.666Z,1230.4150
2023-03-23T00:25:57.715Z,1236.1110
2023-03-23T00:26:08.773Z,1231.5500
2023-03-23T00:26:19.818Z,1238.4041
2023-03-23T00:26:31.062Z,1230.4150
2023-03-23T00:26:48.440Z,1231.5500
2023-03-23T00:26:59.796Z,1231.5500
2023-03-23T00:27:11.315Z,1231.5500
2023-03-23T00:27:22.377Z,1234.9680
2023-03-23T00:27:33.418Z,1236.1110
2023-03-23T00:27:44.568Z,1231.5500
2023-03-23T00:27:55.619Z,1231.5500
2023-03-23T00:28:07.019Z,1237.2570
2023-03-23T00:28:18.126Z,1236.1110
2023-03-23T00:28:29.192Z,1243.0170
2023-03-23T00:28:40.241Z,1229.2820
2023-03-23T00:28:51.315Z,1231.5500
2023-03-23T00:29:02.515Z,1232.6870
2023-03-23T00:29:13.570Z,1234.9680
2023-03-23T00:29:24.634Z,1241.8600
2023-03-23T00:29:35.685Z,1234.9680
2023-03-23T00:29:46.740Z,1232.6870
2023-03-23T00:29:57.862Z,1236.1110
2023-03-23T00:30:08.887Z,1234.9680
2023-03-23T00:30:19.957Z,1238.4041
2023-03-23T00:30:31.023Z,1239.5540
2023-03-23T00:30:42.077Z,1238.4041
2023-03-23T00:30:53.329Z,1233.8260
2023-03-23T00:31:04.366Z,1241.8600
2023-03-23T00:31:15.453Z,1243.0170
2023-03-23T00:31:26.537Z,1236.1110
2023-03-23T00:31:37.615Z,1238.4041
2023-03-23T00:31:48.677Z,1243.0170
2023-03-23T00:31:59.740Z,1241.8600
2023-03-23T00:32:10.798Z,1228.1510
2023-03-23T00:32:21.864Z,1241.8600
2023-03-23T00:32:32.907Z,1241.8600
2023-03-23T00:32:43.963Z,1238.4041
2023-03-23T00:32:55.008Z,1237.2570
2023-03-23T00:33:06.185Z,1245.3361
2023-03-23T00:33:17.699Z,1244.1750
2023-03-23T00:33:32.416Z,1245.3361
2023-03-23T00:33:43.520Z,1237.2570
2023-03-23T00:33:54.582Z,1240.7061
2023-03-23T00:34:05.680Z,1233.8260
2023-03-23T00:34:17.776Z,1230.4150
2023-03-23T00:34:28.834Z,1233.8260
2023-03-23T00:34:40.264Z,1247.6639
2023-03-23T00:34:51.788Z,1230.4150
2023-03-23T00:35:02.875Z,1234.9680
2023-03-23T00:35:13.908Z,1231.5500
2023-03-23T00:35:25.135Z,1246.4990
2023-03-23T00:35:36.182Z,1233.8260
2023-03-23T00:35:47.271Z,1237.2570
2023-03-23T00:35:58.550Z,1236.1110
2023-03-23T00:36:09.628Z,1246.4990
2023-03-23T00:36:21.088Z,1228.1510
2023-03-23T00:36:32.154Z,1236.1110
2023-03-23T00:36:43.529Z,1229.2820
2023-03-23T00:36:54.672Z,1236.1110
2023-03-23T00:37:05.724Z,1240.7061
2023-03-23T00:37:16.770Z,1237.2570
2023-03-23T00:37:27.826Z,1239.5540
2023-03-23T00:37:40.102Z,1236.1110
2023-03-23T00:37:51.637Z,1230.4150
2023-03-23T00:38:03.144Z,1238.4041
2023-03-23T00:38:14.237Z,1233.8260
2023-03-23T00:38:25.542Z,1240.7061
2023-03-23T00:38:37.106Z,1236.1110
2023-03-23T00:38:48.199Z,1238.4041
2023-03-23T00:38:59.329Z,1241.8600
2023-03-23T00:39:10.662Z,1234.9680
2023-03-23T00:39:22.188Z,1236.1110
2023-03-23T00:39:33.740Z,1240.7061
2023-03-23T00:39:44.790Z,1236.1110
2023-03-23T00:39:55.908Z,1231.5500
2023-03-23T00:40:06.965Z,1236.1110
2023-03-23T00:40:18.007Z,1243.0170
2023-03-23T00:40:29.049Z,1241.8600
2023-03-23T00:40:40.125Z,1238.4041
2023-03-23T00:40:51.179Z,1236.1110
2023-03-23T00:41:02.259Z,1240.7061
2023-03-23T00:41:13.320Z,1240.7061
2023-03-23T00:41:24.734Z,1244.1750
2023-03-23T00:41:35.796Z,1243.0170
2023-03-23T00:41:46.845Z,1245.3361
2023-03-23T00:41:57.887Z,1237.2570
2023-03-23T00:42:09.572Z,1243.0170
2023-03-23T00:42:20.615Z,1238.4041
2023-03-23T00:42:31.649Z,1241.8600
2023-03-23T00:42:42.710Z,1251.1720
2023-03-23T00:42:53.788Z,1248.8311
2023-03-23T00:43:04.839Z,1245.3361
2023-03-23T00:43:15.962Z,1244.1750
2023-03-23T00:43:27.025Z,1240.7061
2023-03-23T00:43:38.124Z,1238.4041
2023-03-23T00:43:49.168Z,1237.2570
2023-03-23T00:44:00.240Z,1237.2570
2023-03-23T00:44:11.818Z,1240.7061
2023-03-23T00:44:28.770Z,1234.9680
2023-03-23T00:44:39.819Z,1234.9680
2023-03-23T00:44:50.870Z,1238.4041
2023-03-23T00:45:02.687Z,1233.8260
2023-03-23T00:45:13.761Z,1241.8600
2023-03-23T00:45:24.799Z,1240.7061
2023-03-23T00:45:35.850Z,1234.9680
2023-03-23T00:45:46.880Z,1241.8600
2023-03-23T00:45:57.940Z,1246.4990
2023-03-23T00:46:09.023Z,1244.1750
2023-03-23T00:46:20.106Z,1244.1750
2023-03-23T00:46:31.157Z,1229.2820
2023-03-23T00:46:42.217Z,1238.4041
2023-03-23T00:46:53.276Z,1237.2570
2023-03-23T00:47:04.310Z,1233.8260
2023-03-23T00:47:15.373Z,1231.5500
2023-03-23T00:47:27.354Z,1238.4041
2023-03-23T00:47:38.490Z,1253.5210
2023-03-23T00:47:49.579Z,1243.0170
2023-03-23T00:48:00.812Z,1243.0170
2023-03-23T00:48:12.039Z,1237.2570
2023-03-23T00:48:23.110Z,1251.1720
2023-03-23T00:48:34.166Z,1240.7061
2023-03-23T00:48:45.247Z,1246.4990
2023-03-23T00:48:56.326Z,1238.4041
2023-03-23T00:49:07.381Z,1238.4041
2023-03-23T00:49:18.440Z,1248.8311
2023-03-23T00:49:29.494Z,1246.4990
2023-03-23T00:49:40.551Z,1252.3450
2023-03-23T00:49:51.599Z,1247.6639
2023-03-23T00:50:02.655Z,1243.0170
2023-03-23T00:50:13.705Z,1236.1110
2023-03-23T00:50:33.845Z,1243.0170
2023-03-23T00:50:41.815Z,1239.5540
2023-03-23T00:50:52.869Z,1238.4041
2023-03-23T00:51:03.933Z,1234.9680
2023-03-23T00:51:15.483Z,1238.4041
2023-03-23T00:51:26.523Z,1238.4041
2023-03-23T00:51:37.570Z,1231.5500
2023-03-23T00:51:48.638Z,1245.3361
2023-03-23T00:51:59.708Z,1238.4041
2023-03-23T00:52:10.775Z,1237.2570
2023-03-23T00:52:21.841Z,1234.9680
2023-03-23T00:52:32.905Z,1247.6639
2023-03-23T00:52:43.970Z,1236.1110
2023-03-23T00:52:55.019Z,1239.5540
2023-03-23T00:53:06.499Z,1238.4041
2023-03-23T00:53:17.561Z,1241.8600
2023-03-23T00:53:28.624Z,1247.6639
2023-03-23T00:53:39.714Z,1250.0000
2023-03-23T00:53:50.797Z,1240.7061
2023-03-23T00:54:01.992Z,1241.8600
2023-03-23T00:54:13.040Z,1244.1750
2023-03-23T00:54:24.106Z,1243.0170
2023-03-23T00:54:35.131Z,1241.8600
2023-03-23T00:54:46.689Z,1248.8311
2023-03-23T00:54:57.757Z,1243.0170
2023-03-23T00:55:08.822Z,1241.8600
2023-03-23T00:55:19.899Z,1248.8311
2023-03-23T00:55:30.947Z,1251.1720
2023-03-23T00:55:42.181Z,1245.3361
2023-03-23T00:55:53.571Z,1243.0170
2023-03-23T00:56:04.614Z,1245.3361
2023-03-23T00:56:15.662Z,1245.3361
2023-03-23T00:56:26.806Z,1240.7061
2023-03-23T00:56:37.844Z,1243.0170
2023-03-23T00:56:49.003Z,1244.1750
2023-03-23T00:57:00.101Z,1241.8600
2023-03-23T00:57:11.140Z,1243.0170
2023-03-23T00:57:22.213Z,1247.6639
2023-03-23T00:57:33.263Z,1245.3361
2023-03-23T00:57:44.388Z,1250.0000
2023-03-23T00:57:55.778Z,1248.8311
2023-03-23T00:58:06.833Z,1247.6639
2023-03-23T00:58:17.878Z,1241.8600
2023-03-23T00:58:28.922Z,1250.0000
2023-03-23T00:58:39.962Z,1246.4990
2023-03-23T00:58:51.068Z,1240.7061
2023-03-23T00:59:02.143Z,1247.6639
2023-03-23T00:59:13.484Z,1250.0000
2023-03-23T00:59:24.551Z,1254.6990
2023-03-23T00:59:35.601Z,1244.1750
2023-03-23T00:59:46.887Z,1244.1750
2023-03-23T00:59:57.978Z,1252.3450
2023-03-23T01:00:14.929Z,1252.3450
2023-03-23T01:00:26.004Z,1239.5540
2023-03-23T01:00:37.060Z,1238.4041
2023-03-23T01:00:48.123Z,1248.8311
2023-03-23T01:00:59.171Z,1245.3361
2023-03-23T01:01:10.682Z,1244.1750
2023-03-23T01:01:21.716Z,1246.4990
2023-03-23T01:01:32.882Z,1253.5210
2023-03-23T01:01:44.116Z,1250.0000
2023-03-23T01:01:55.179Z,1252.3450
2023-03-23T01:02:06.248Z,1248.8311
2023-03-23T01:02:17.614Z,1253.5210
2023-03-23T01:02:28.665Z,1250.0000
2023-03-23T01:02:39.801Z,1252.3450
2023-03-23T01:02:50.828Z,1252.3450
2023-03-23T01:03:02.017Z,1246.4990
2023-03-23T01:03:13.084Z,1247.6639
2023-03-23T01:03:24.119Z,1247.6639
2023-03-23T01:03:35.160Z,1251.1720
2023-03-23T01:03:46.215Z,1248.8311
2023-03-23T01:03:57.289Z,1254.6990
2023-03-23T01:04:08.343Z,1246.4990
2023-03-23T01:04:19.749Z,1247.6639
2023-03-23T01:04:30.817Z,1246.4990
2023-03-23T01:04:41.900Z,1247.6639
2023-03-23T01:04:52.961Z,1254.6990
2023-03-23T01:05:04.009Z,1252.3450
2023-03-23T01:05:15.059Z,1254.6990
2023-03-23T01:05:26.117Z,1247.6639
2023-03-23T01:05:37.207Z,1247.6639
2023-03-23T01:05:48.758Z,1250.0000
2023-03-23T01:05:59.816Z,1252.3450
2023-03-23T01:06:10.869Z,1248.8311
2023-03-23T01:06:23.023Z,1253.5210
2023-03-23T01:06:34.219Z,1248.8311
2023-03-23T01:06:45.273Z,1254.6990
2023-03-23T01:06:56.330Z,1250.0000
2023-03-23T01:07:07.418Z,1247.6639
2023-03-23T01:07:18.488Z,1255.8800
2023-03-23T01:07:29.863Z,1250.0000
2023-03-23T01:07:40.940Z,1247.6639
2023-03-23T01:07:51.987Z,1241.8600
2023-03-23T01:08:03.050Z,1258.2469
2023-03-23T01:08:14.089Z,1251.1720
2023-03-23T01:08:25.129Z,1250.0000
2023-03-23T01:08:36.182Z,1255.8800
2023-03-23T01:08:47.239Z,1257.0620
2023-03-23T01:08:58.325Z,1257.0620
2023-03-23T01:09:09.426Z,1246.4990
2023-03-23T01:09:20.465Z,1252.3450
2023-03-23T01:09:31.528Z,1252.3450
2023-03-23T01:09:42.612Z,1247.6639
2023-03-23T01:09:53.669Z,1253.5210
2023-03-23T01:10:05.057Z,1252.3450
2023-03-23T01:10:16.112Z,1253.5210
2023-03-23T01:10:31.938Z,1245.3361
2023-03-23T01:10:43.041Z,1251.1720
2023-03-23T01:10:54.199Z,1245.3361
2023-03-23T01:11:05.286Z,1245.3361
2023-03-23T01:11:16.320Z,1247.6639
2023-03-23T01:11:27.347Z,1248.8311
2023-03-23T01:11:38.424Z,1259.4340
2023-03-23T01:11:49.448Z,1252.3450
2023-03-23T01:12:00.489Z,1252.3450
2023-03-23T01:12:11.636Z,1257.0620
2023-03-23T01:12:22.758Z,1255.8800
2023-03-23T01:12:34.197Z,1252.3450
2023-03-23T01:12:45.259Z,1254.6990
2023-03-23T01:12:56.323Z,1250.0000
2023-03-23T01:13:07.384Z,1254.6990
2023-03-23T01:13:18.407Z,1245.3361
2023-03-23T01:13:29.848Z,1251.1720
2023-03-23T01:13:40.919Z,1250.0000
2023-03-23T01:13:52.160Z,1260.6230
2023-03-23T01:14:03.248Z,1252.3450
2023-03-23T01:14:14.318Z,1254.6990
2023-03-23T01:14:25.387Z,1250.0000
2023-03-23T01:14:36.411Z,1255.8800
2023-03-23T01:14:47.468Z,1253.5210
2023-03-23T01:14:58.533Z,1254.6990
2023-03-23T01:15:09.719Z,1269.0110
2023-03-23T01:15:20.772Z,1259.4340
2023-03-23T01:15:31.826Z,1265.4030
2023-03-23T01:15:43.363Z,1259.4340
2023-03-23T01:15:54.405Z,1259.4340
2023-03-23T01:16:05.447Z,1263.0090
2023-03-23T01:16:16.501Z,1255.8800
2023-03-23T01:16:27.554Z,1252.3450
2023-03-23T01:16:38.606Z,1252.3450
2023-03-23T01:16:49.622Z,1252.3450
2023-03-23T01:17:01.089Z,1257.0620
2023-03-23T01:17:12.148Z,1259.4340
2023-03-23T01:17:23.217Z,1258.2469
2023-03-23T01:17:34.437Z,1257.0620
2023-03-23T01:17:45.516Z,1261.8149
2023-03-23T01:17:56.566Z,1259.4340
2023-03-23T01:18:07.597Z,1255.8800
2023-03-23T01:18:18.661Z,1250.0000
2023-03-23T01:18:35.596Z,1261.8149
2023-03-23T01:18:46.650Z,1259.4340
2023-03-23T01:18:57.908Z,1257.0620
2023-03-23T01:19:09.008Z,1252.3450
2023-03-23T01:19:20.477Z,1254.6990
2023-03-23T01:19:31.519Z,1257.0620
2023-03-23T01:19:42.567Z,1259.4340
2023-03-23T01:19:53.638Z,1252.3450
2023-03-23T01:20:04.677Z,1260.6230
2023-03-23T01:20:15.746Z,1257.0620
2023-03-23T01:20:26.784Z,1265.4030
2023-03-23T01:20:37.941Z,1263.0090
2023-03-23T01:20:48.967Z,1265.4030
2023-03-23T01:21:00.068Z,1254.6990
2023-03-23T01:21:11.110Z,1254.6990
2023-03-23T01:21:22.166Z,1254.6990
2023-03-23T01:21:33.253Z,1258.2469
2023-03-23T01:21:44.296Z,1261.8149
2023-03-23T01:21:55.348Z,1255.8800
2023-03-23T01:22:06.530Z,1265.4030
2023-03-23T01:22:17.847Z,1259.4340
2023-03-23T01:22:28.906Z,1261.8149
2023-03-23T01:22:39.990Z,1258.2469
2023-03-23T01:22:51.040Z,1266.6030
2023-03-23T01:23:02.328Z,1263.0090
2023-03-23T01:23:13.859Z,1264.2050
2023-03-23T01:23:24.876Z,1261.8149
2023-03-23T01:23:35.918Z,1263.0090
2023-03-23T01:23:46.947Z,1263.0090
2023-03-23T01:23:57.992Z,1257.0620
2023-03-23T01:24:09.097Z,1259.4340
2023-03-23T01:24:20.728Z,1258.2469
2023-03-23T01:24:31.797Z,1259.4340
2023-03-23T01:24:43.151Z,1257.0620
2023-03-23T01:24:54.648Z,1261.8149
2023-03-23T01:25:05.856Z,1261.8149
2023-03-23T01:25:16.915Z,1247.6639
2023-03-23T01:25:28.085Z,1257.0620
2023-03-23T01:25:39.422Z,1263.0090
2023-03-23T01:25:50.980Z,1254.6990
2023-03-23T01:26:02.157Z,1263.0090
2023-03-23T01:26:13.207Z,1261.8149
2023-03-23T01:26:24.366Z,1261.8149
2023-03-23T01:26:35.447Z,1251.1720
2023-03-23T01:26:46.649Z,1254.6990
2023-03-23T01:26:57.702Z,1258.2469
2023-03-23T01:27:08.739Z,1258.2469
2023-03-23T01:27:19.805Z,1261.8149
2023-03-23T01:27:30.857Z,1273.8550
2023-03-23T01:27:41.920Z,1271.4290
2023-03-23T01:27:52.968Z,1257.0620
2023-03-23T01:28:04.447Z,1261.8149
2023-03-23T01:28:15.487Z,1266.6030
2023-03-23T01:28:27.136Z,1259.4340
2023-03-23T01:28:38.202Z,1259.4340
2023-03-23T01:28:49.366Z,1264.2050
2023-03-23T01:29:00.398Z,1267.8060
2023-03-23T01:29:11.517Z,1269.0110
2023-03-23T01:29:22.560Z,1264.2050
2023-03-23T01:29:33.597Z,1271.4290
2023-03-23T01:29:44.677Z,1260.6230
2023-03-23T01:29:55.767Z,1265.4030
2023-03-23T01:30:06.839Z,1258.2469
2023-03-23T01:30:17.988Z,1265.4030
2023-03-23T01:30:29.046Z,1258.2469
2023-03-23T01:30:40.586Z,1263.0090
2023-03-23T01:30:51.639Z,1266.6030
2023-03-23T01:31:02.708Z,1267.8060
2023-03-23T01:31:19.657Z,1258.2469
2023-03-23T01:31:30.724Z,1257.0620
2023-03-23T01:31:41.736Z,1257.0620
2023-03-23T01:31:52.759Z,1257.0620
2023-03-23T01:32:03.809Z,1254.6990
2023-03-23T01:32:14.877Z,1260.6230
2023-03-23T01:32:25.931Z,1261.8149
2023-03-23T01:32:36.986Z,1270.2190
2023-03-23T01:32:48.033Z,1259.4340
2023-03-23T01:32:59.116Z,1260.6230
2023-03-23T01:33:10.358Z,1267.8060
2023-03-23T01:33:21.438Z,1259.4340
2023-03-23T01:33:32.492Z,1260.6230
2023-03-23T01:33:43.547Z,1261.8149
2023-03-23T01:33:54.568Z,1261.8149
2023-03-23T01:34:05.692Z,1259.4340
2023-03-23T01:34:17.267Z,1261.8149
2023-03-23T01:34:28.757Z,1276.2910
2023-03-23T01:34:39.817Z,1258.2469
2023-03-23T01:34:54.056Z,1265.4030
2023-03-23T01:35:05.112Z,1255.8800
2023-03-23T01:35:16.297Z,1264.2050
2023-03-23T01:35:27.619Z,1257.0620
2023-03-23T01:35:38.727Z,1263.0090
2023-03-23T01:35:49.930Z,1258.2469
2023-03-23T01:36:00.988Z,1255.8800
2023-03-23T01:36:12.156Z,1264.2050
2023-03-23T01:36:23.225Z,1264.2050
2023-03-23T01:36:34.370Z,1259.4340
2023-03-23T01:36:45.513Z,1255.8800
2023-03-23T01:36:56.532Z,1261.8149
2023-03-23T01:37:07.572Z,1257.0620
2023-03-23T01:37:18.832Z,1264.2050
2023-03-23T01:37:29.898Z,1259.4340
2023-03-23T01:37:40.950Z,1269.0110
2023-03-23T01:37:52.612Z,1260.6230
2023-03-23T01:38:04.097Z,1264.2050
2023-03-23T01:38:15.167Z,1259.4340
2023-03-23T01:38:26.288Z,1273.8550
2023-03-23T01:38:37.329Z,1267.8060
2023-03-23T01:38:48.388Z,1266.6030
2023-03-23T01:38:59.566Z,1259.4340
2023-03-23T01:39:10.635Z,1264.2050
2023-03-23T01:39:21.951Z,1261.8149
2023-03-23T01:39:33.006Z,1270.2190
2023-03-23T01:39:44.048Z,1261.8149
2023-03-23T01:39:55.103Z,1273.8550
2023-03-23T01:40:06.158Z,1263.0090
2023-03-23T01:40:17.218Z,1263.0090
2023-03-23T01:40:28.269Z,1264.2050
2023-03-23T01:40:39.339Z,1261.8149
2023-03-23T01:40:50.399Z,1263.0090
2023-03-23T01:41:01.440Z,1263.0090
2023-03-23T01:41:12.500Z,1263.0090
2023-03-23T01:41:23.544Z,1264.2050
2023-03-23T01:41:34.587Z,1261.8149
2023-03-23T01:41:45.652Z,1266.6030
2023-03-23T01:41:56.723Z,1270.2190
2023-03-23T01:42:07.782Z,1269.0110
2023-03-23T01:42:18.910Z,1276.2910
2023-03-23T01:42:30.121Z,1273.8550
2023-03-23T01:42:41.198Z,1264.2050
2023-03-23T01:42:52.262Z,1270.2190
2023-03-23T01:43:03.292Z,1266.6030
2023-03-23T01:43:14.347Z,1275.0720
2023-03-23T01:43:25.370Z,1266.6030
2023-03-23T01:43:36.412Z,1271.4290
2023-03-23T01:43:47.459Z,1276.2910
2023-03-23T01:43:58.512Z,1269.0110
2023-03-23T01:44:09.600Z,1270.2190
2023-03-23T01:44:20.659Z,1261.8149
2023-03-23T01:44:31.765Z,1272.6410
2023-03-23T01:44:42.814Z,1273.8550
2023-03-23T01:44:53.954Z,1269.0110
2023-03-23T01:45:05.031Z,1273.8550
2023-03-23T01:45:16.078Z,1273.8550
2023-03-23T01:45:27.431Z,1278.7360
2023-03-23T01:45:38.477Z,1270.2190
2023-03-23T01:45:49.533Z,1273.8550
2023-03-23T01:46:00.595Z,1267.8060
2023-03-23T01:46:11.645Z,1267.8060
2023-03-23T01:46:22.690Z,1273.8550
2023-03-23T01:46:33.754Z,1273.8550
2023-03-23T01:46:44.789Z,1269.0110
2023-03-23T01:46:55.853Z,1269.0110
2023-03-23T01:47:06.914Z,1276.2910
2023-03-23T01:47:18.381Z,1271.4290
2023-03-23T01:47:29.471Z,1276.2910
2023-03-23T01:47:40.646Z,1265.4030
2023-03-23T01:47:51.680Z,1272.6410
2023-03-23T01:48:03.166Z,1282.4210
2023-03-23T01:48:14.222Z,1275.0720
2023-03-23T01:48:28.779Z,1271.4290
2023-03-23T01:48:39.810Z,1264.2050
2023-03-23T01:48:50.872Z,1269.0110
2023-03-23T01:49:01.932Z,1269.0110
2023-03-23T01:49:12.984Z,1267.8060
2023-03-23T01:49:24.041Z,1264.2050
2023-03-23T01:49:35.124Z,1269.0110
2023-03-23T01:49:46.401Z,1270.2190
2023-03-23T01:49:57.455Z,1264.2050
2023-03-23T01:50:08.516Z,1270.2190
2023-03-23T01:50:19.573Z,1272.6410
2023-03-23T01:50:30.821Z,1273.8550
2023-03-23T01:50:41.874Z,1278.7360
2023-03-23T01:50:52.925Z,1273.8550
2023-03-23T01:51:03.965Z,1272.6410
2023-03-23T01:51:15.482Z,1269.0110
2023-03-23T01:51:36.602Z,1278.7360
2023-03-23T01:51:43.486Z,1264.2050
2023-03-23T01:51:54.867Z,1263.0090
2023-03-23T01:52:06.122Z,1271.4290
2023-03-23T01:52:17.182Z,1264.2050
2023-03-23T01:52:28.242Z,1270.2190
2023-03-23T01:52:39.436Z,1279.9620
2023-03-23T01:52:50.482Z,1271.4290
2023-03-23T01:53:01.541Z,1266.6030
2023-03-23T01:53:12.570Z,1271.4290
2023-03-23T01:53:23.634Z,1264.2050
2023-03-23T01:53:34.693Z,1272.6410
2023-03-23T01:53:45.752Z,1264.2050
2023-03-23T01:53:56.793Z,1266.6030
2023-03-23T01:54:07.914Z,1267.8060
2023-03-23T01:54:19.002Z,1267.8060
2023-03-23T01:54:30.109Z,1271.4290
2023-03-23T01:54:41.245Z,1271.4290
2023-03-23T01:54:52.354Z,1265.4030
2023-03-23T01:55:03.402Z,1277.5120
2023-03-23T01:55:14.822Z,1273.8550
2023-03-23T01:55:25.873Z,1269.0110
2023-03-23T01:55:36.922Z,1277.5120
2023-03-23T01:55:47.972Z,1269.0110
2023-03-23T01:55:59.105Z,1272.6410
2023-03-23T01:56:10.137Z,1270.2190
2023-03-23T01:56:21.745Z,1273.8550
2023-03-23T01:56:32.793Z,1266.6030
2023-03-23T01:56:43.828Z,1273.8550
2023-03-23T01:56:54.916Z,1278.7360
2023-03-23T01:57:05.952Z,1277.5120
2023-03-23T01:57:17.006Z,1286.1270
2023-03-23T01:57:28.117Z,1270.2190
2023-03-23T01:57:39.453Z,1271.4290
2023-03-23T01:57:50.505Z,1275.0720
2023-03-23T01:58:01.565Z,1278.7360
2023-03-23T01:58:12.640Z,1271.4290
2023-03-23T01:58:23.682Z,1269.0110
2023-03-23T01:58:34.725Z,1283.6541
2023-03-23T01:58:45.782Z,1277.5120
2023-03-23T01:58:56.854Z,1266.6030
2023-03-23T01:59:07.912Z,1276.2910
2023-03-23T01:59:18.975Z,1266.6030
2023-03-23T01:59:30.036Z,1273.8550
2023-03-23T01:59:41.076Z,1270.2190
2023-03-23T01:59:54.531Z,1267.8060
2023-03-23T02:00:05.656Z,1264.2050
2023-03-23T02:00:16.682Z,1275.0720
2023-03-23T02:00:27.744Z,1276.2910
2023-03-23T02:00:38.771Z,1273.8550
2023-03-23T02:00:49.850Z,1264.2050
2023-03-23T02:01:02.038Z,1265.4030
2023-03-23T02:01:13.110Z,1278.7360
2023-03-23T02:01:24.162Z,1273.8550
2023-03-23T02:01:35.233Z,1264.2050
2023-03-23T02:01:46.832Z,1264.2050
2023-03-23T02:01:57.905Z,1266.6030
2023-03-23T02:02:08.968Z,1279.9620
2023-03-23T02:02:20.425Z,1281.1899
2023-03-23T02:02:31.482Z,1261.8149
2023-03-23T02:02:42.536Z,1275.0720
2023-03-23T02:02:53.569Z,1269.0110
2023-03-23T02:03:05.482Z,1266.6030
2023-03-23T02:03:17.296Z,1276.2910
2023-03-23T02:03:35.344Z,1267.8060
2023-03-23T02:03:46.411Z,1260.6230
2023-03-23T02:03:57.421Z,1258.2469
2023-03-23T02:04:08.925Z,1260.6230
2023-03-23T02:04:19.981Z,1260.6230
2023-03-23T02:04:31.200Z,1266.6030
2023-03-23T02:04:42.300Z,1273.8550
2023-03-23T02:04:53.356Z,1264.2050
2023-03-23T02:05:04.822Z,1267.8060
2023-03-23T02:05:16.826Z,1261.8149
2023-03-23T02:05:27.872Z,1264.2050
2023-03-23T02:05:38.930Z,1263.0090
2023-03-23T02:05:49.985Z,1267.8060
2023-03-23T02:06:01.041Z,1273.8550
2023-03-23T02:06:12.092Z,1266.6030
2023-03-23T02:06:23.181Z,1257.0620
2023-03-23T02:06:34.232Z,1261.8149
2023-03-23T02:06:45.295Z,1264.2050
2023-03-23T02:06:56.332Z,1269.0110
2023-03-23T02:07:07.397Z,1257.0620
2023-03-23T02:07:18.425Z,1267.8060
2023-03-23T02:07:29.462Z,1269.0110
2023-03-23T02:07:40.705Z,1270.2190
2023-03-23T02:07:51.761Z,1271.4290
2023-03-23T02:08:02.821Z,1269.0110
2023-03-23T02:08:14.360Z,1264.2050
2023-03-23T02:08:25.419Z,1264.2050
2023-03-23T02:08:36.504Z,1272.6410